Time;durP1;ratioP1;P1;durP2;ratioP2;P2;SDS_P1;SDS_P2;PMS_P1;PMS_P2;Temp;Humidity;BMP_temperature;BMP_pressure;BME280_temperature;BME280_humidity;BME280_pressure;Samples;Min_cycle;Max_cycle;Signal;HPM_P1;HPM_P2
2023/08/09 00:00:32;;;;;;;8.90;8.40;;;;;;;;;;5093859;28;20027;-77
2023/08/09 00:03:00;;;;;;;9.55;8.90;;;;;;;;;;5086380;28;20080;-78
2023/08/09 00:05:25;;;;;;;10.10;9.10;;;;;;;;;;5092722;28;20024;-77
2023/08/09 00:07:51;;;;;;;9.10;8.50;;;;;;;;;;5089350;28;20040;-78
2023/08/09 00:10:17;;;;;;;9.10;8.50;;;;;;;;;;5092841;28;20071;-78
2023/08/09 00:12:42;;;;;;;9.50;8.82;;;;;;;;;;5084792;28;20055;-77
2023/08/09 00:15:08;;;;;;;9.43;8.73;;;;;;;;;;5080356;28;20105;-78
2023/08/09 00:17:34;;;;;;;9.25;8.55;;;;;;;;;;5084245;28;20491;-78
2023/08/09 00:19:59;;;;;;;10.15;9.23;;;;;;;;;;5087155;28;20484;-78
2023/08/09 00:22:26;;;;;;;9.18;8.48;;;;;;;;;;5082903;28;20749;-79
2023/08/09 00:24:52;;;;;;;9.90;9.20;;;;;;;;;;5087633;28;20032;-78
2023/08/09 00:27:19;;;;;;;9.80;9.00;;;;;;;;;;5084525;28;20055;-79
2023/08/09 00:29:44;;;;;;;9.63;8.93;;;;;;;;;;5088151;28;20032;-78
2023/08/09 00:32:10;;;;;;;9.82;9.13;;;;;;;;;;5090026;28;20042;-78
2023/08/09 00:34:36;;;;;;;9.88;9.27;;;;;;;;;;5080945;28;20063;-78
2023/08/09 00:37:01;;;;;;;10.40;9.50;;;;;;;;;;5087284;28;20040;-78
2023/08/09 00:39:27;;;;;;;10.00;9.27;;;;;;;;;;5087981;28;20029;-78
2023/08/09 00:41:53;;;;;;;10.13;9.38;;;;;;;;;;5080447;28;20040;-79
2023/08/09 00:44:19;;;;;;;8.80;8.30;;;;;;;;;;5088520;28;20093;-78
2023/08/09 00:46:45;;;;;;;9.70;9.02;;;;;;;;;;5086224;28;20035;-79
2023/08/09 00:49:11;;;;;;;10.02;9.32;;;;;;;;;;5098384;28;20028;-79
2023/08/09 00:51:37;;;;;;;10.05;9.25;;;;;;;;;;5106004;28;20051;-78
2023/08/09 00:54:03;;;;;;;9.75;9.10;;;;;;;;;;5103584;28;20052;-80
2023/08/09 00:56:29;;;;;;;9.55;8.80;;;;;;;;;;5089555;28;20093;-79
2023/08/09 00:58:55;;;;;;;9.43;8.80;;;;;;;;;;5090286;28;20051;-79
2023/08/09 01:01:20;;;;;;;9.60;8.85;;;;;;;;;;5090190;28;20043;-80
2023/08/09 01:03:47;;;;;;;9.07;8.45;;;;;;;;;;5090684;28;20040;-79
2023/08/09 01:06:23;;;;;;;8.77;8.23;;;;;;;;;;5092275;28;20039;-79
2023/08/09 01:09:19;;;;;;;9.45;8.65;;;;;;;;;;5088957;28;20059;-79
2023/08/09 01:11:44;;;;;;;10.02;9.32;;;;;;;;;;5084447;28;20040;-78
2023/08/09 01:14:11;;;;;;;9.13;8.50;;;;;;;;;;5090438;28;20044;-80
2023/08/09 01:16:37;;;;;;;9.10;8.50;;;;;;;;;;5088542;28;20513;-80
2023/08/09 01:19:11;;;;;;;8.93;8.18;;;;;;;;;;5090964;28;20111;-79
2023/08/09 01:21:39;;;;;;;8.60;8.07;;;;;;;;;;5091384;28;20048;-79
2023/08/09 01:24:08;;;;;;;10.48;9.40;;;;;;;;;;5092331;28;20147;-79
2023/08/09 01:26:33;;;;;;;9.40;8.60;;;;;;;;;;5088505;28;20040;-79
2023/08/09 01:28:59;;;;;;;9.60;8.90;;;;;;;;;;5091805;28;20050;-80
2023/08/09 01:31:25;;;;;;;9.18;8.48;;;;;;;;;;5090559;28;20032;-79
2023/08/09 01:33:51;;;;;;;9.50;8.60;;;;;;;;;;5088509;28;20067;-79
2023/08/09 01:36:28;;;;;;;9.88;9.15;;;;;;;;;;5090065;28;20503;-79
2023/08/09 01:39:00;;;;;;;9.65;8.80;;;;;;;;;;5086029;28;20040;-80
2023/08/09 01:41:27;;;;;;;9.98;9.13;;;;;;;;;;5088715;28;20040;-80
2023/08/09 01:43:55;;;;;;;9.50;8.90;;;;;;;;;;5089242;28;20040;-80
2023/08/09 01:46:21;;;;;;;9.75;8.85;;;;;;;;;;5090371;28;20032;-78
2023/08/09 01:48:48;;;;;;;9.52;8.82;;;;;;;;;;5083955;28;20023;-80
2023/08/09 01:51:14;;;;;;;9.30;8.65;;;;;;;;;;5086774;28;20032;-80
2023/08/09 01:53:39;;;;;;;9.70;8.82;;;;;;;;;;5086983;28;20051;-79
2023/08/09 01:56:05;;;;;;;9.55;8.75;;;;;;;;;;5086293;28;20036;-80
2023/08/09 01:58:32;;;;;;;10.15;9.35;;;;;;;;;;5069514;28;20656;-80
2023/08/09 02:00:58;;;;;;;10.05;9.18;;;;;;;;;;5085154;28;20032;-80
2023/08/09 02:03:25;;;;;;;10.25;9.40;;;;;;;;;;5087364;28;20032;-80
2023/08/09 02:05:51;;;;;;;10.32;9.55;;;;;;;;;;5067291;28;20498;-79
2023/08/09 02:08:18;;;;;;;9.93;9.32;;;;;;;;;;5088055;28;20043;-78
2023/08/09 02:10:45;;;;;;;9.70;9.00;;;;;;;;;;5082972;28;20049;-79
2023/08/09 02:13:10;;;;;;;10.05;9.35;;;;;;;;;;5085831;28;20036;-80
2023/08/09 02:15:36;;;;;;;10.20;9.45;;;;;;;;;;5084331;28;20039;-79
2023/08/09 02:18:04;;;;;;;10.13;9.30;;;;;;;;;;5086932;28;20032;-80
2023/08/09 02:20:30;;;;;;;9.77;9.07;;;;;;;;;;5086736;28;20051;-80
2023/08/09 02:22:56;;;;;;;10.32;9.20;;;;;;;;;;5090474;28;20032;-79
2023/08/09 02:25:21;;;;;;;10.30;9.38;;;;;;;;;;5087372;28;20048;-79
2023/08/09 02:27:47;;;;;;;9.80;9.20;;;;;;;;;;5083949;28;20058;-79
2023/08/09 02:30:13;;;;;;;10.00;9.20;;;;;;;;;;5088585;28;20040;-79
2023/08/09 02:32:38;;;;;;;9.77;9.07;;;;;;;;;;5085923;28;20044;-79
2023/08/09 02:35:05;;;;;;;9.60;9.00;;;;;;;;;;5085723;28;20036;-79
2023/08/09 02:37:32;;;;;;;10.35;9.45;;;;;;;;;;5085866;28;20036;-79
2023/08/09 02:39:58;;;;;;;10.20;9.50;;;;;;;;;;5083652;28;20062;-80
2023/08/09 02:42:24;;;;;;;10.20;9.40;;;;;;;;;;5087644;28;20028;-78
2023/08/09 02:44:49;;;;;;;10.50;9.80;;;;;;;;;;5087948;28;20487;-79
2023/08/09 02:47:15;;;;;;;10.73;9.82;;;;;;;;;;5084555;28;20388;-80
2023/08/09 02:49:41;;;;;;;10.63;9.73;;;;;;;;;;5079426;28;20055;-78
2023/08/09 02:52:06;;;;;;;10.15;9.45;;;;;;;;;;5090220;28;20039;-78
2023/08/09 02:54:32;;;;;;;10.52;9.73;;;;;;;;;;5093055;28;20046;-79
2023/08/09 02:56:58;;;;;;;10.57;9.63;;;;;;;;;;5088649;28;20097;-79
2023/08/09 02:59:23;;;;;;;14.50;9.50;;;;;;;;;;5079653;28;20064;-80
2023/08/09 03:01:49;;;;;;;9.93;9.18;;;;;;;;;;5090782;28;20564;-77
2023/08/09 03:04:14;;;;;;;9.80;8.98;;;;;;;;;;5088034;28;20036;-80
2023/08/09 03:06:40;;;;;;;10.48;9.40;;;;;;;;;;5083356;28;20118;-79
2023/08/09 03:09:06;;;;;;;9.77;9.10;;;;;;;;;;5084984;28;20032;-79
2023/08/09 03:11:32;;;;;;;10.38;9.60;;;;;;;;;;5088707;28;20044;-79
2023/08/09 03:13:58;;;;;;;10.00;9.30;;;;;;;;;;5082103;28;20581;-79
2023/08/09 03:16:24;;;;;;;9.98;9.27;;;;;;;;;;5087024;28;20039;-80
2023/08/09 03:18:49;;;;;;;9.73;9.13;;;;;;;;;;5086924;28;20085;-79
2023/08/09 03:21:17;;;;;;;10.43;9.55;;;;;;;;;;5087955;28;20039;-79
2023/08/09 03:23:43;;;;;;;10.40;9.60;;;;;;;;;;5087135;28;20036;-79
2023/08/09 03:26:09;;;;;;;10.07;9.25;;;;;;;;;;5084291;28;20032;-78
2023/08/09 03:28:36;;;;;;;10.13;9.32;;;;;;;;;;5088743;28;20129;-79
2023/08/09 03:31:04;;;;;;;9.60;9.00;;;;;;;;;;5085780;28;20044;-78
2023/08/09 03:33:34;;;;;;;9.70;9.10;;;;;;;;;;5082983;28;20511;-79
2023/08/09 03:35:59;;;;;;;10.30;9.40;;;;;;;;;;5085276;28;20028;-79
2023/08/09 03:38:25;;;;;;;10.05;9.35;;;;;;;;;;5085583;28;20060;-80
2023/08/09 03:40:51;;;;;;;9.77;9.18;;;;;;;;;;5085914;28;20048;-78
2023/08/09 03:43:17;;;;;;;10.13;9.32;;;;;;;;;;5084853;28;20036;-79
2023/08/09 03:45:43;;;;;;;9.63;8.98;;;;;;;;;;5081581;28;20059;-79
2023/08/09 03:48:09;;;;;;;9.85;9.13;;;;;;;;;;5085970;28;20086;-79
2023/08/09 03:50:34;;;;;;;9.30;8.70;;;;;;;;;;5085595;28;20509;-79
2023/08/09 03:53:01;;;;;;;9.75;9.05;;;;;;;;;;5080392;28;20100;-79
2023/08/09 03:55:28;;;;;;;10.25;9.45;;;;;;;;;;5087351;28;20577;-79
2023/08/09 03:57:53;;;;;;;10.20;9.35;;;;;;;;;;5088336;28;20032;-79
2023/08/09 04:00:22;;;;;;;9.82;9.23;;;;;;;;;;5089293;28;20112;-80
2023/08/09 04:02:49;;;;;;;10.05;9.38;;;;;;;;;;5085987;28;20071;-79
2023/08/09 04:05:16;;;;;;;10.20;9.40;;;;;;;;;;5088047;28;20028;-80
2023/08/09 04:07:42;;;;;;;10.60;9.60;;;;;;;;;;5088901;28;20071;-77
2023/08/09 04:10:08;;;;;;;10.38;9.57;;;;;;;;;;5085952;28;20036;-78
2023/08/09 04:12:37;;;;;;;10.40;9.50;;;;;;;;;;5085721;28;20040;-78
2023/08/09 04:15:04;;;;;;;9.55;8.80;;;;;;;;;;5084312;28;20094;-79
2023/08/09 04:17:31;;;;;;;10.20;9.50;;;;;;;;;;5083855;28;20044;-78
2023/08/09 04:19:58;;;;;;;10.30;9.40;;;;;;;;;;5084211;28;20464;-80
2023/08/09 04:22:24;;;;;;;10.23;9.40;;;;;;;;;;5088818;28;20042;-80
2023/08/09 04:24:50;;;;;;;10.15;9.45;;;;;;;;;;5090594;28;20115;-79
2023/08/09 04:27:16;;;;;;;10.18;9.45;;;;;;;;;;5087445;28;20471;-79
2023/08/09 04:29:41;;;;;;;10.25;9.45;;;;;;;;;;5092767;28;20077;-78
2023/08/09 04:32:07;;;;;;;10.20;9.50;;;;;;;;;;5094184;28;20036;-77
2023/08/09 04:34:33;;;;;;;10.20;9.40;;;;;;;;;;5091207;28;20637;-79
2023/08/09 04:36:59;;;;;;;10.57;9.77;;;;;;;;;;5091119;28;20158;-78
2023/08/09 04:39:25;;;;;;;10.48;9.77;;;;;;;;;;5089679;28;20089;-79
2023/08/09 04:41:50;;;;;;;10.77;9.98;;;;;;;;;;5086706;28;20044;-79
2023/08/09 04:44:17;;;;;;;10.45;9.65;;;;;;;;;;5092545;28;20040;-80
2023/08/09 04:46:42;;;;;;;10.77;10.07;;;;;;;;;;5092128;28;20331;-79
2023/08/09 04:49:08;;;;;;;10.07;9.38;;;;;;;;;;5086402;28;20036;-79
2023/08/09 04:51:33;;;;;;;10.70;9.80;;;;;;;;;;5092221;28;20047;-78
2023/08/09 04:53:59;;;;;;;10.73;9.88;;;;;;;;;;5089666;28;20040;-80
2023/08/09 04:56:25;;;;;;;10.77;9.95;;;;;;;;;;5092538;28;20102;-80
2023/08/09 04:58:50;;;;;;;10.80;10.05;;;;;;;;;;5083640;28;20088;-80
2023/08/09 05:01:16;;;;;;;10.25;9.45;;;;;;;;;;5096075;28;20066;-78
2023/08/09 05:03:41;;;;;;;10.02;9.32;;;;;;;;;;5099043;28;20439;-79
2023/08/09 05:06:08;;;;;;;10.45;9.63;;;;;;;;;;5092586;28;20162;-80
2023/08/09 05:08:34;;;;;;;11.18;10.30;;;;;;;;;;5089984;28;20090;-80
2023/08/09 05:10:59;;;;;;;10.20;9.48;;;;;;;;;;5086663;28;20047;-77
2023/08/09 05:13:25;;;;;;;10.15;9.45;;;;;;;;;;5092055;28;20046;-80
2023/08/09 05:15:51;;;;;;;10.73;9.95;;;;;;;;;;5090890;28;20043;-80
2023/08/09 05:18:17;;;;;;;10.63;9.90;;;;;;;;;;5088915;28;20051;-79
2023/08/09 05:20:42;;;;;;;10.23;9.52;;;;;;;;;;5091406;28;20080;-79
2023/08/09 05:23:08;;;;;;;10.10;9.27;;;;;;;;;;5090100;28;20036;-79
2023/08/09 05:25:34;;;;;;;10.57;9.75;;;;;;;;;;5090523;28;20036;-80
2023/08/09 05:28:00;;;;;;;9.85;9.18;;;;;;;;;;5085889;28;20032;-80
2023/08/09 05:30:25;;;;;;;10.40;9.60;;;;;;;;;;5091269;28;20035;-79
2023/08/09 05:32:51;;;;;;;10.00;9.30;;;;;;;;;;5107373;28;20040;-78
2023/08/09 05:35:17;;;;;;;9.93;9.20;;;;;;;;;;5113664;28;20040;-79
2023/08/09 05:37:42;;;;;;;9.70;8.93;;;;;;;;;;5111529;28;20051;-80
2023/08/09 05:40:09;;;;;;;9.43;8.82;;;;;;;;;;5095072;28;20086;-78
2023/08/09 05:42:36;;;;;;;9.68;9.07;;;;;;;;;;5099099;28;20356;-80
2023/08/09 05:45:01;;;;;;;9.80;8.98;;;;;;;;;;5089142;28;20123;-79
2023/08/09 05:47:27;;;;;;;9.38;8.77;;;;;;;;;;5094975;28;20399;-80
2023/08/09 05:49:53;;;;;;;9.43;8.68;;;;;;;;;;5096014;28;20070;-80
2023/08/09 05:52:18;;;;;;;9.43;8.65;;;;;;;;;;5093546;28;20050;-80
2023/08/09 05:54:44;;;;;;;10.00;9.13;;;;;;;;;;5089751;28;20062;-80
2023/08/09 05:57:11;;;;;;;10.50;9.60;;;;;;;;;;5088822;28;20032;-78
2023/08/09 05:59:36;;;;;;;9.68;8.88;;;;;;;;;;5089576;28;20044;-77
2023/08/09 06:02:04;;;;;;;9.73;9.13;;;;;;;;;;5092421;28;20051;-79
2023/08/09 06:04:29;;;;;;;10.00;9.00;;;;;;;;;;5093365;28;20036;-80
2023/08/09 06:06:55;;;;;;;9.40;8.77;;;;;;;;;;5092509;28;20053;-79
2023/08/09 06:09:20;;;;;;;9.80;9.20;;;;;;;;;;5086448;28;20031;-79
2023/08/09 06:11:46;;;;;;;9.15;8.35;;;;;;;;;;5084453;28;20036;-80
2023/08/09 06:14:11;;;;;;;9.85;8.90;;;;;;;;;;5087678;28;20597;-79
2023/08/09 06:16:37;;;;;;;9.27;8.57;;;;;;;;;;5090507;28;20032;-79
2023/08/09 06:19:02;;;;;;;9.50;8.57;;;;;;;;;;5089993;28;20115;-79
2023/08/09 06:21:28;;;;;;;9.80;9.00;;;;;;;;;;5092511;28;20637;-79
2023/08/09 06:23:54;;;;;;;9.85;8.93;;;;;;;;;;5092126;28;20039;-79
2023/08/09 06:26:19;;;;;;;10.15;9.32;;;;;;;;;;5089436;28;20024;-79
2023/08/09 06:28:45;;;;;;;10.30;9.40;;;;;;;;;;5092445;28;20024;-79
2023/08/09 06:31:10;;;;;;;9.38;8.68;;;;;;;;;;5091951;28;20335;-79
2023/08/09 06:33:42;;;;;;;9.25;8.52;;;;;;;;;;5089455;28;20040;-79
2023/08/09 06:36:09;;;;;;;9.77;8.85;;;;;;;;;;5090574;28;20036;-79
2023/08/09 06:38:34;;;;;;;9.18;8.48;;;;;;;;;;5091551;28;20039;-78
2023/08/09 06:41:00;;;;;;;9.75;9.07;;;;;;;;;;5091121;28;20035;-79
2023/08/09 06:43:25;;;;;;;9.70;8.88;;;;;;;;;;5089157;28;20050;-78
2023/08/09 06:45:52;;;;;;;9.05;8.45;;;;;;;;;;5088689;28;20040;-79
2023/08/09 06:48:17;;;;;;;8.95;8.25;;;;;;;;;;5089616;28;20034;-79
2023/08/09 06:50:43;;;;;;;10.23;8.13;;;;;;;;;;5086764;28;20044;-79
2023/08/09 06:53:08;;;;;;;9.40;8.45;;;;;;;;;;5091449;28;20035;-78
2023/08/09 06:55:34;;;;;;;8.85;8.25;;;;;;;;;;5088554;28;20047;-79
2023/08/09 06:58:00;;;;;;;9.07;8.52;;;;;;;;;;5086373;28;20415;-79
2023/08/09 07:00:25;;;;;;;9.20;8.40;;;;;;;;;;5087842;28;20039;-79
2023/08/09 07:02:51;;;;;;;8.80;8.18;;;;;;;;;;5090660;28;20028;-79
2023/08/09 07:05:20;;;;;;;8.70;8.10;;;;;;;;;;5088632;28;20068;-79
2023/08/09 07:07:47;;;;;;;9.05;8.43;;;;;;;;;;5091855;28;20040;-79
2023/08/09 07:10:15;;;;;;;8.70;8.18;;;;;;;;;;5090610;28;20039;-79
2023/08/09 07:12:40;;;;;;;8.88;8.18;;;;;;;;;;5085971;28;20044;-80
2023/08/09 07:15:08;;;;;;;9.40;8.57;;;;;;;;;;5088096;28;20032;-79
2023/08/09 07:17:37;;;;;;;8.90;8.30;;;;;;;;;;5090584;28;20038;-79
2023/08/09 07:20:07;;;;;;;9.43;8.43;;;;;;;;;;5088530;28;20125;-79
2023/08/09 07:22:34;;;;;;;8.98;8.23;;;;;;;;;;5088562;28;20089;-79
2023/08/09 07:25:00;;;;;;;9.15;8.45;;;;;;;;;;5086786;28;20028;-80
2023/08/09 07:27:26;;;;;;;9.00;8.35;;;;;;;;;;5091162;28;20115;-78
2023/08/09 07:29:52;;;;;;;8.50;8.00;;;;;;;;;;5094429;28;20071;-79
2023/08/09 07:32:18;;;;;;;8.50;8.00;;;;;;;;;;5086893;28;20040;-79
2023/08/09 07:34:43;;;;;;;8.18;7.53;;;;;;;;;;5087797;28;20517;-80
2023/08/09 07:37:09;;;;;;;8.30;7.68;;;;;;;;;;5089787;28;20035;-79
2023/08/09 07:39:35;;;;;;;8.50;7.90;;;;;;;;;;5087239;28;20039;-79
2023/08/09 07:42:01;;;;;;;8.55;7.75;;;;;;;;;;5089599;28;20066;-79
2023/08/09 07:44:26;;;;;;;7.90;7.40;;;;;;;;;;5089980;28;20036;-79
2023/08/09 07:46:52;;;;;;;9.00;8.40;;;;;;;;;;5089922;28;20032;-79
2023/08/09 07:49:17;;;;;;;8.55;7.78;;;;;;;;;;5090320;28;20051;-79
2023/08/09 07:51:43;;;;;;;8.85;7.82;;;;;;;;;;5088747;28;20068;-78
2023/08/09 07:54:10;;;;;;;8.50;7.90;;;;;;;;;;5089289;28;20104;-78
2023/08/09 07:56:35;;;;;;;8.63;7.93;;;;;;;;;;5090229;28;20024;-79
2023/08/09 07:59:01;;;;;;;9.00;8.20;;;;;;;;;;5088688;28;20097;-79
2023/08/09 08:01:26;;;;;;;8.65;8.02;;;;;;;;;;5089676;28;20036;-79
2023/08/09 08:03:52;;;;;;;9.70;8.65;;;;;;;;;;5089024;28;20028;-79
2023/08/09 08:06:18;;;;;;;8.70;8.10;;;;;;;;;;5093612;28;20055;-79
2023/08/09 08:08:45;;;;;;;9.32;8.50;;;;;;;;;;5093488;28;20784;-78
2023/08/09 08:11:11;;;;;;;8.63;7.93;;;;;;;;;;5086804;28;20027;-78
2023/08/09 08:13:37;;;;;;;9.05;7.93;;;;;;;;;;5090751;28;20649;-79
2023/08/09 08:16:04;;;;;;;8.65;7.97;;;;;;;;;;5096453;28;20039;-79
2023/08/09 08:18:30;;;;;;;9.18;8.48;;;;;;;;;;5095324;28;20056;-79
2023/08/09 08:20:57;;;;;;;8.68;8.05;;;;;;;;;;5093630;28;20036;-78
2023/08/09 08:23:23;;;;;;;8.68;8.07;;;;;;;;;;5095302;28;20054;-79
2023/08/09 08:25:49;;;;;;;9.52;8.82;;;;;;;;;;5096009;28;20439;-78
2023/08/09 08:28:15;;;;;;;8.75;8.00;;;;;;;;;;5093806;28;20364;-78
2023/08/09 08:30:40;;;;;;;8.40;7.90;;;;;;;;;;5096219;28;20052;-78
2023/08/09 08:33:08;;;;;;;8.80;8.20;;;;;;;;;;5097604;28;20040;-79
2023/08/09 08:35:43;;;;;;;8.80;8.15;;;;;;;;;;5091374;28;20039;-79
2023/08/09 08:38:09;;;;;;;9.10;8.45;;;;;;;;;;5093948;28;20040;-78
2023/08/09 08:40:35;;;;;;;9.13;8.30;;;;;;;;;;5093640;28;20032;-79
2023/08/09 08:43:01;;;;;;;9.48;8.05;;;;;;;;;;5092100;28;20043;-80
2023/08/09 08:45:27;;;;;;;8.95;8.20;;;;;;;;;;5056890;28;20036;-79
2023/08/09 08:47:53;;;;;;;9.23;8.43;;;;;;;;;;5089122;28;20036;-78
2023/08/09 08:50:19;;;;;;;9.25;8.40;;;;;;;;;;5090829;28;20043;-79
2023/08/09 08:52:47;;;;;;;8.75;8.15;;;;;;;;;;5094511;28;20359;-78
2023/08/09 08:55:14;;;;;;;9.18;8.45;;;;;;;;;;5090674;28;20039;-78
2023/08/09 08:57:42;;;;;;;9.50;8.80;;;;;;;;;;5087579;28;20040;-79
2023/08/09 09:00:15;;;;;;;9.52;8.82;;;;;;;;;;5094024;28;20143;-78
2023/08/09 09:02:42;;;;;;;10.00;9.30;;;;;;;;;;5091427;28;20086;-78
2023/08/09 09:05:09;;;;;;;9.00;8.40;;;;;;;;;;5086208;28;21001;-78
2023/08/09 09:07:36;;;;;;;9.73;8.93;;;;;;;;;;5092225;28;20036;-78
2023/08/09 09:10:06;;;;;;;9.32;8.60;;;;;;;;;;5089431;28;20044;-79
2023/08/09 09:12:37;;;;;;;8.60;8.02;;;;;;;;;;5086164;28;20058;-79
2023/08/09 09:15:08;;;;;;;9.18;8.57;;;;;;;;;;5088655;28;20458;-78
2023/08/09 09:17:42;;;;;;;9.50;8.60;;;;;;;;;;5088357;28;20051;-78
2023/08/09 09:20:15;;;;;;;9.30;8.60;;;;;;;;;;5081856;28;20035;-78
2023/08/09 09:22:40;;;;;;;9.60;8.90;;;;;;;;;;5083207;28;20040;-78
2023/08/09 09:25:10;;;;;;;9.35;8.65;;;;;;;;;;5086717;28;20044;-78
2023/08/09 09:27:37;;;;;;;9.45;8.77;;;;;;;;;;5086103;28;20036;-78
2023/08/09 09:30:14;;;;;;;9.60;8.80;;;;;;;;;;5083223;28;20062;-78
2023/08/09 09:32:52;;;;;;;8.98;8.38;;;;;;;;;;5091143;28;20147;-79
2023/08/09 09:35:18;;;;;;;8.73;8.23;;;;;;;;;;5087636;28;20040;-78
2023/08/09 09:37:48;;;;;;;9.20;8.50;;;;;;;;;;5084880;28;20113;-79
2023/08/09 09:40:34;;;;;;;10.23;8.57;;;;;;;;;;5081000;28;20044;-78
2023/08/09 09:43:01;;;;;;;9.10;8.50;;;;;;;;;;5085894;28;20600;-78
2023/08/09 09:45:29;;;;;;;9.38;8.75;;;;;;;;;;5082659;28;20032;-79
2023/08/09 09:47:56;;;;;;;9.38;8.68;;;;;;;;;;5082836;28;20050;-79
2023/08/09 09:50:23;;;;;;;8.82;8.23;;;;;;;;;;5084857;28;20686;-78
2023/08/09 09:52:49;;;;;;;9.23;8.30;;;;;;;;;;5085339;28;20036;-78
2023/08/09 09:55:20;;;;;;;9.25;8.50;;;;;;;;;;5087078;28;20044;-78
2023/08/09 09:57:47;;;;;;;9.25;8.45;;;;;;;;;;5084975;28;20051;-79
2023/08/09 10:00:15;;;;;;;9.63;8.82;;;;;;;;;;5086235;28;20031;-79
2023/08/09 10:02:47;;;;;;;8.40;7.80;;;;;;;;;;5086378;28;20035;-79
2023/08/09 10:05:23;;;;;;;9.15;8.55;;;;;;;;;;5089084;28;20016;-79
2023/08/09 10:07:50;;;;;;;8.60;8.00;;;;;;;;;;5112710;28;20028;-80
2023/08/09 10:10:17;;;;;;;9.90;8.02;;;;;;;;;;5126714;28;20037;-79
2023/08/09 10:12:54;;;;;;;10.43;8.00;;;;;;;;;;5095943;28;20039;-79
2023/08/09 10:15:27;;;;;;;8.77;7.97;;;;;;;;;;5082296;28;20064;-79
2023/08/09 10:18:05;;;;;;;8.48;7.57;;;;;;;;;;5084070;28;20074;-78
2023/08/09 10:20:32;;;;;;;8.73;8.13;;;;;;;;;;5086061;28;20032;-78
2023/08/09 10:22:58;;;;;;;9.43;8.60;;;;;;;;;;5085576;28;20127;-79
2023/08/09 10:25:46;;;;;;;8.60;7.90;;;;;;;;;;5085486;28;20550;-77
2023/08/09 10:28:12;;;;;;;9.03;8.40;;;;;;;;;;5081579;28;20031;-80
2023/08/09 10:30:48;;;;;;;8.70;8.10;;;;;;;;;;5084588;28;20043;-79
2023/08/09 10:33:21;;;;;;;9.40;8.50;;;;;;;;;;5082725;28;20043;-80
2023/08/09 10:35:49;;;;;;;9.65;8.85;;;;;;;;;;5081223;28;20032;-78
2023/08/09 10:38:18;;;;;;;8.88;8.18;;;;;;;;;;5085319;28;20807;-78
2023/08/09 10:40:48;;;;;;;8.60;8.00;;;;;;;;;;5085372;28;20193;-78
2023/08/09 10:43:24;;;;;;;9.38;8.77;;;;;;;;;;5082331;28;20919;-78
2023/08/09 10:45:53;;;;;;;9.10;8.40;;;;;;;;;;5080887;28;20124;-79
2023/08/09 10:48:27;;;;;;;8.95;8.38;;;;;;;;;;5084586;28;20042;-79
2023/08/09 10:51:07;;;;;;;9.40;8.80;;;;;;;;;;5085052;28;20065;-78
2023/08/09 10:53:54;;;;;;;9.18;8.57;;;;;;;;;;5083589;28;20066;-78
2023/08/09 10:56:41;;;;;;;8.95;8.27;;;;;;;;;;5083375;28;20131;-78
2023/08/09 10:59:10;;;;;;;9.32;8.60;;;;;;;;;;5086872;28;20042;-79
2023/08/09 11:01:37;;;;;;;9.18;8.38;;;;;;;;;;5083409;28;20043;-79
2023/08/09 11:04:07;;;;;;;9.18;8.48;;;;;;;;;;5087439;28;20039;-79
2023/08/09 11:06:37;;;;;;;11.32;9.38;;;;;;;;;;5084226;28;20028;-78
2023/08/09 11:09:09;;;;;;;9.55;8.77;;;;;;;;;;5082603;28;20031;-78
2023/08/09 11:11:35;;;;;;;9.40;8.70;;;;;;;;;;5086597;28;20047;-78
2023/08/09 11:14:02;;;;;;;10.25;9.50;;;;;;;;;;5085186;28;20512;-78
2023/08/09 11:16:29;;;;;;;9.65;8.85;;;;;;;;;;5085484;28;20397;-79
2023/08/09 11:19:03;;;;;;;9.05;8.35;;;;;;;;;;5084992;28;20503;-78
2023/08/09 11:21:46;;;;;;;8.77;8.18;;;;;;;;;;5069417;28;20031;-75
2023/08/09 11:24:14;;;;;;;9.13;8.27;;;;;;;;;;5089543;28;20027;-79
2023/08/09 11:26:53;;;;;;;8.70;7.90;;;;;;;;;;5087861;28;20119;-79
2023/08/09 11:29:21;;;;;;;8.88;8.27;;;;;;;;;;5087391;28;20044;-79
2023/08/09 11:31:50;;;;;;;9.65;8.75;;;;;;;;;;5087298;28;20047;-79
2023/08/09 11:34:18;;;;;;;8.88;8.30;;;;;;;;;;5095155;28;20032;-79
2023/08/09 11:36:45;;;;;;;8.57;7.97;;;;;;;;;;5109471;28;20052;-80
2023/08/09 11:39:13;;;;;;;9.30;8.60;;;;;;;;;;5112112;28;20051;-79
2023/08/09 11:41:41;;;;;;;8.88;8.13;;;;;;;;;;5098788;28;20047;-79
2023/08/09 11:44:06;;;;;;;9.25;8.55;;;;;;;;;;5087480;28;20039;-78
2023/08/09 11:46:32;;;;;;;9.45;8.70;;;;;;;;;;5089960;28;20028;-79
2023/08/09 11:49:03;;;;;;;9.25;8.57;;;;;;;;;;5090584;28;20031;-79
2023/08/09 11:51:32;;;;;;;9.23;8.63;;;;;;;;;;5091154;28;20036;-80
2023/08/09 11:53:58;;;;;;;8.73;8.13;;;;;;;;;;5080800;28;20043;-75
2023/08/09 11:56:33;;;;;;;8.82;8.23;;;;;;;;;;5085728;28;20039;-77
2023/08/09 11:59:03;;;;;;;;;;;;;;;;;;5063700;28;20048;-77
2023/08/09 12:01:39;;;;;;;9.27;8.57;;;;;;;;;;5077439;28;20441;-76
2023/08/09 12:04:07;;;;;;;9.52;8.80;;;;;;;;;;5084924;28;20052;-77
2023/08/09 12:06:45;;;;;;;9.57;8.60;;;;;;;;;;5082680;28;20020;-76
2023/08/09 12:09:34;;;;;;;8.80;8.10;;;;;;;;;;5084343;28;20059;-77
2023/08/09 12:12:11;;;;;;;9.25;8.55;;;;;;;;;;5075877;28;20054;-77
2023/08/09 12:14:41;;;;;;;9.63;8.77;;;;;;;;;;5082250;28;20681;-76
2023/08/09 12:17:17;;;;;;;8.57;7.97;;;;;;;;;;5082749;28;20037;-76
2023/08/09 12:19:42;;;;;;;9.40;7.93;;;;;;;;;;5074289;28;20154;-77
2023/08/09 12:22:08;;;;;;;8.63;8.07;;;;;;;;;;5083583;28;20066;-77
2023/08/09 12:24:33;;;;;;;8.50;7.78;;;;;;;;;;5090478;28;20229;-76
2023/08/09 12:27:00;;;;;;;8.82;8.20;;;;;;;;;;5091580;28;20503;-76
2023/08/09 12:29:25;;;;;;;8.63;8.02;;;;;;;;;;5085611;28;20396;-76
2023/08/09 12:31:51;;;;;;;8.65;7.85;;;;;;;;;;5085331;28;20043;-76
2023/08/09 12:34:18;;;;;;;10.13;8.00;;;;;;;;;;5083407;28;20124;-77
2023/08/09 12:36:43;;;;;;;9.25;8.45;;;;;;;;;;5088750;28;20032;-77
2023/08/09 12:39:10;;;;;;;8.70;8.10;;;;;;;;;;5072139;28;20035;-76
2023/08/09 12:41:37;;;;;;;8.93;8.23;;;;;;;;;;5094522;28;20088;-77
2023/08/09 12:44:03;;;;;;;9.65;9.05;;;;;;;;;;5087089;28;20047;-77
2023/08/09 12:46:29;;;;;;;9.43;8.52;;;;;;;;;;5083759;28;20567;-76
2023/08/09 12:48:54;;;;;;;9.88;9.07;;;;;;;;;;5081474;28;20043;-76
2023/08/09 12:51:22;;;;;;;9.77;8.90;;;;;;;;;;5087869;28;20027;-76
2023/08/09 12:53:48;;;;;;;9.05;8.02;;;;;;;;;;5084281;28;20040;-76
2023/08/09 12:56:14;;;;;;;9.23;8.40;;;;;;;;;;5089250;28;20032;-77
2023/08/09 12:58:40;;;;;;;9.27;8.40;;;;;;;;;;5084270;28;20146;-77
2023/08/09 13:01:06;;;;;;;8.88;8.18;;;;;;;;;;5088818;28;20047;-77
2023/08/09 13:03:32;;;;;;;9.40;8.50;;;;;;;;;;5086541;28;20590;-76
2023/08/09 13:05:58;;;;;;;8.98;8.25;;;;;;;;;;5087309;28;20640;-77
2023/08/09 13:08:23;;;;;;;8.43;7.82;;;;;;;;;;5082856;28;21197;-76
2023/08/09 13:10:50;;;;;;;8.88;7.97;;;;;;;;;;5079953;28;20524;-75
2023/08/09 13:13:16;;;;;;;8.82;8.20;;;;;;;;;;5080294;28;20119;-76
2023/08/09 13:15:41;;;;;;;8.88;7.82;;;;;;;;;;5087576;28;20043;-76
2023/08/09 13:18:07;;;;;;;8.50;8.00;;;;;;;;;;5083445;28;20407;-76
2023/08/09 13:20:33;;;;;;;8.77;8.05;;;;;;;;;;5084380;28;20387;-76
2023/08/09 13:22:59;;;;;;;8.20;7.60;;;;;;;;;;5082368;28;20518;-76
2023/08/09 13:25:24;;;;;;;8.48;7.90;;;;;;;;;;5081300;28;20108;-76
2023/08/09 13:27:50;;;;;;;8.55;7.90;;;;;;;;;;5085303;28;20039;-76
2023/08/09 13:30:16;;;;;;;8.38;7.78;;;;;;;;;;5084338;28;20027;-76
2023/08/09 13:32:43;;;;;;;8.70;8.00;;;;;;;;;;5086420;28;20065;-76
2023/08/09 13:35:09;;;;;;;9.05;8.35;;;;;;;;;;5084154;28;20310;-76
2023/08/09 13:37:39;;;;;;;8.85;8.13;;;;;;;;;;5082505;28;20536;-76
2023/08/09 13:40:11;;;;;;;9.23;8.45;;;;;;;;;;5084803;28;20044;-76
2023/08/09 13:42:37;;;;;;;9.07;8.40;;;;;;;;;;5085797;28;20442;-76
2023/08/09 13:45:03;;;;;;;8.73;8.00;;;;;;;;;;5085758;28;20622;-77
2023/08/09 13:47:29;;;;;;;8.90;8.20;;;;;;;;;;5083295;28;20063;-76
2023/08/09 13:49:55;;;;;;;8.85;8.27;;;;;;;;;;5085517;28;20495;-75
2023/08/09 13:52:20;;;;;;;9.38;8.68;;;;;;;;;;5086434;28;20036;-75
2023/08/09 13:54:46;;;;;;;9.10;8.40;;;;;;;;;;5084591;28;20403;-76
2023/08/09 13:57:12;;;;;;;9.10;8.45;;;;;;;;;;5085014;28;20119;-76
2023/08/09 13:59:38;;;;;;;9.13;8.52;;;;;;;;;;5085433;28;20048;-76
2023/08/09 14:02:04;;;;;;;8.85;8.15;;;;;;;;;;5084842;28;20054;-76
2023/08/09 14:04:29;;;;;;;9.52;8.88;;;;;;;;;;5082920;28;20135;-76
2023/08/09 14:06:58;;;;;;;9.02;8.40;;;;;;;;;;5085059;28;20044;-76
2023/08/09 14:09:24;;;;;;;9.35;8.65;;;;;;;;;;5084700;28;20066;-76
2023/08/09 14:11:50;;;;;;;8.50;7.90;;;;;;;;;;5082577;28;20047;-76
2023/08/09 14:14:15;;;;;;;8.80;8.10;;;;;;;;;;5082773;28;20578;-77
2023/08/09 14:16:42;;;;;;;8.80;8.20;;;;;;;;;;5084727;28;20040;-76
2023/08/09 14:19:08;;;;;;;8.45;7.72;;;;;;;;;;5082075;28;20123;-76
2023/08/09 14:21:34;;;;;;;8.73;8.10;;;;;;;;;;5082497;28;20502;-76
2023/08/09 14:23:59;;;;;;;8.70;8.10;;;;;;;;;;5084437;28;20537;-75
2023/08/09 14:26:25;;;;;;;9.10;8.40;;;;;;;;;;5083377;28;20032;-76
2023/08/09 14:28:51;;;;;;;8.95;8.20;;;;;;;;;;5084934;28;20504;-76
2023/08/09 14:31:16;;;;;;;9.90;9.00;;;;;;;;;;5082528;28;20431;-75
2023/08/09 14:33:42;;;;;;;8.80;8.20;;;;;;;;;;5082725;28;20404;-76
2023/08/09 14:36:07;;;;;;;9.27;8.43;;;;;;;;;;5084340;28;20035;-76
2023/08/09 14:38:33;;;;;;;8.57;8.02;;;;;;;;;;5078777;28;20047;-76
2023/08/09 14:40:59;;;;;;;8.73;8.02;;;;;;;;;;5078451;28;20039;-76